Time;durP1;ratioP1;P1;durP2;ratioP2;P2;SDS_P1;SDS_P2;PMS_P1;PMS_P2;Temp;Humidity;BMP_temperature;BMP_pressure;BME280_temperature;BME280_humidity;BME280_pressure;Samples;Min_cycle;Max_cycle;Signal;HPM_P1;HPM_P2
2023/04/06 00:01:07;;;;;;;32.50;11.60;;;;;;;-0.07;55.50;101387.69;110919;1211;140659;-61
2023/04/06 00:03:33;;;;;;;32.60;12.60;;;;;;;-0.09;55.66;101382.91;111006;1211;99035;-61
2023/04/06 00:05:59;;;;;;;42.40;12.30;;;;;;;-0.11;55.62;101385.52;111135;1211;138297;-61
2023/04/06 00:08:26;;;;;;;35.40;12.70;;;;;;;-0.13;55.72;101386.39;110968;1212;99300;-63
2023/04/06 00:10:51;;;;;;;35.70;13.10;;;;;;;-0.13;55.81;101389.37;111067;1206;98942;-63
2023/04/06 00:13:16;;;;;;;31.70;12.50;;;;;;;-0.16;55.87;101385.46;110946;1212;138274;-61
2023/04/06 00:15:41;;;;;;;35.10;12.80;;;;;;;-0.18;55.99;101383.86;111002;1206;99039;-61
2023/04/06 00:18:07;;;;;;;33.60;12.20;;;;;;;-0.21;56.07;101382.41;110948;1212;139119;-62
2023/04/06 00:20:32;;;;;;;43.90;13.40;;;;;;;-0.23;56.03;101384.14;110981;1222;98950;-61
2023/04/06 00:22:57;;;;;;;29.30;12.80;;;;;;;-0.28;56.09;101382.16;110978;1212;99022;-61
2023/04/06 00:25:22;;;;;;;33.70;12.90;;;;;;;-0.31;56.28;101382.82;110977;1221;138485;-61
2023/04/06 00:27:48;;;;;;;38.00;13.90;;;;;;;-0.35;56.25;101378.56;110984;1206;99031;-61
2023/04/06 00:30:13;;;;;;;37.40;13.50;;;;;;;-0.37;56.25;101382.40;110925;1206;141456;-61
2023/04/06 00:32:38;;;;;;;31.50;12.90;;;;;;;-0.39;56.41;101380.96;110959;1208;98967;-61
2023/04/06 00:35:04;;;;;;;34.60;12.50;;;;;;;-0.41;56.49;101377.79;110902;1212;140609;-60
2023/04/06 00:37:30;;;;;;;43.50;14.20;;;;;;;-0.42;56.45;101376.89;111003;1210;99035;-62
2023/04/06 00:39:55;;;;;;;38.10;14.90;;;;;;;-0.43;56.67;101375.48;110975;1206;98960;-61
2023/04/06 00:42:25;;;;;;;35.80;12.50;;;;;;;-0.43;56.69;101372.83;110920;1206;139541;-61
2023/04/06 00:45:01;;;;;;;31.10;12.80;;;;;;;-0.43;56.82;101371.95;110997;1207;107314;-62
2023/04/06 00:47:26;;;;;;;38.60;13.60;;;;;;;-0.44;56.77;101370.71;110818;1209;139711;-62
2023/04/06 00:49:53;;;;;;;36.60;13.60;;;;;;;-0.45;56.96;101372.83;111009;1221;98262;-61
2023/04/06 00:52:19;;;;;;;41.60;14.20;;;;;;;-0.45;56.96;101371.93;111078;1212;98959;-62
2023/04/06 00:54:44;;;;;;;33.00;12.90;;;;;;;-0.45;56.92;101371.77;110818;1212;140205;-62
2023/04/06 00:57:12;;;;;;;42.00;14.60;;;;;;;-0.45;57.00;101373.34;110955;1206;99104;-61
2023/04/06 00:59:37;;;;;;;38.70;14.70;;;;;;;-0.46;57.09;101373.33;111041;1212;140296;-62
2023/04/06 01:02:03;;;;;;;35.20;12.90;;;;;;;-0.47;57.01;101371.38;111044;1206;98947;-62
2023/04/06 01:04:28;;;;;;;41.40;15.30;;;;;;;-0.47;57.16;101379.09;110919;1212;99060;-61
2023/04/06 01:06:53;;;;;;;46.30;14.90;;;;;;;-0.49;57.19;101372.58;110921;1212;139853;-61
2023/04/06 01:09:18;;;;;;;49.00;15.50;;;;;;;-0.51;57.13;101373.08;111014;1210;99029;-61
2023/04/06 01:11:44;;;;;;;42.90;15.10;;;;;;;-0.52;57.28;101376.58;110919;1206;140369;-61
2023/04/06 01:14:10;;;;;;;44.00;14.10;;;;;;;-0.52;57.48;101372.54;110973;1212;99028;-61
2023/04/06 01:16:36;;;;;;;38.80;14.70;;;;;;;-0.53;57.39;101374.10;111070;1209;99025;-62
2023/04/06 01:19:08;;;;;;;42.40;15.10;;;;;;;-0.55;57.40;101377.40;110889;1210;141105;-62
2023/04/06 01:21:33;;;;;;;47.80;16.50;;;;;;;-0.57;57.74;101379.66;111239;1211;99590;-62
2023/04/06 01:23:59;;;;;;;38.40;16.80;;;;;;;-0.60;57.66;101374.36;110892;1209;140554;-62
2023/04/06 01:26:25;;;;;;;41.00;15.70;;;;;;;-0.61;57.65;101375.05;110988;1211;98823;-62
2023/04/06 01:28:50;;;;;;;41.10;14.70;;;;;;;-0.64;57.90;101375.36;110996;1208;99009;-62
2023/04/06 01:31:15;;;;;;;42.80;16.30;;;;;;;-0.67;57.83;101371.27;110842;1210;138949;-62
2023/04/06 01:33:40;;;;;;;35.80;14.80;;;;;;;-0.70;58.03;101374.05;110904;1212;99019;-63
2023/04/06 01:36:06;;;;;;;49.00;15.20;;;;;;;-0.71;57.97;101375.09;110781;1206;140267;-60
2023/04/06 01:38:32;;;;;;;45.50;15.60;;;;;;;-0.72;58.03;101374.73;110995;1211;99112;-63
2023/04/06 01:40:57;;;;;;;50.50;17.00;;;;;;;-0.72;58.22;101372.44;110957;1212;99467;-63
2023/04/06 01:43:22;;;;;;;46.20;16.50;;;;;;;-0.73;58.33;101371.20;110896;1210;138801;-61
2023/04/06 01:45:48;;;;;;;42.60;15.90;;;;;;;-0.75;58.36;101374.84;110988;1206;113111;-61
2023/04/06 01:48:13;;;;;;;35.80;15.90;;;;;;;-0.78;58.18;101371.83;110793;1209;139082;-61
2023/04/06 01:50:39;;;;;;;33.70;14.70;;;;;;;-0.80;58.36;101370.74;110983;1212;99029;-61
2023/04/06 01:53:04;;;;;;;57.60;16.70;;;;;;;-0.83;58.32;101374.73;110780;1212;140620;-62
2023/04/06 01:55:29;;;;;;;49.30;17.40;;;;;;;-0.85;58.55;101371.55;111023;1210;99615;-62
2023/04/06 01:57:55;;;;;;;50.40;17.10;;;;;;;-0.86;58.61;101378.55;110958;1212;98932;-62
2023/04/06 02:00:20;;;;;;;53.90;18.20;;;;;;;-0.87;58.63;101378.70;110820;1211;139821;-61
2023/04/06 02:02:45;;;;;;;44.50;16.20;;;;;;;-0.89;58.68;101374.11;111030;1209;99046;-61
2023/04/06 02:05:11;;;;;;;46.90;17.30;;;;;;;-0.91;58.72;101373.56;110851;1206;139519;-61
2023/04/06 02:07:36;;;;;;;49.60;16.40;;;;;;;-0.92;58.77;101372.84;111022;1212;99013;-60
2023/04/06 02:10:02;;;;;;;46.70;17.30;;;;;;;-0.94;58.82;101373.86;110985;1210;98957;-62
2023/04/06 02:12:28;;;;;;;44.30;17.10;;;;;;;-0.96;58.89;101371.55;110818;1212;138988;-62
2023/04/06 02:14:53;;;;;;;50.80;17.40;;;;;;;-0.99;59.11;101370.98;111038;1212;99050;-62
2023/04/06 02:17:18;;;;;;;53.80;17.90;;;;;;;-1.01;59.09;101369.73;110723;1206;140503;-62
2023/04/06 02:19:43;;;;;;;45.30;16.80;;;;;;;-1.03;59.11;101368.30;110991;1211;99093;-61
2023/04/06 02:22:09;;;;;;;48.00;16.20;;;;;;;-1.05;59.25;101368.28;110942;1206;98935;-60
2023/04/06 02:24:35;;;;;;;46.50;17.70;;;;;;;-1.07;59.28;101370.52;111018;1212;139590;-60
2023/04/06 02:27:00;;;;;;;48.10;18.30;;;;;;;-1.07;59.14;101368.23;111093;1206;99875;-63
2023/04/06 02:29:26;;;;;;;55.10;19.30;;;;;;;-1.08;59.57;101366.80;110773;1206;139604;-61
2023/04/06 02:31:51;;;;;;;50.90;18.30;;;;;;;-1.09;59.45;101368.73;110951;1210;99031;-61
2023/04/06 02:34:19;;;;;;;49.60;17.10;;;;;;;-1.10;59.47;101371.00;110904;1209;99031;-61
2023/04/06 02:36:46;;;;;;;46.30;17.80;;;;;;;-1.11;59.63;101366.42;110830;1212;140928;-63
2023/04/06 02:39:12;;;;;;;44.10;17.50;;;;;;;-1.11;59.57;101367.64;111110;1209;99018;-62
2023/04/06 02:41:37;;;;;;;50.30;16.40;;;;;;;-1.12;59.64;101368.85;110795;1210;140452;-62
2023/04/06 02:44:03;;;;;;;43.80;16.50;;;;;;;-1.14;59.78;101369.35;110924;1206;97784;-61
2023/04/06 02:46:28;;;;;;;49.20;16.30;;;;;;;-1.16;59.73;101374.75;110961;1211;99029;-61
2023/04/06 02:48:54;;;;;;;47.40;17.50;;;;;;;-1.18;59.88;101375.95;110963;1211;140184;-61
2023/04/06 02:51:20;;;;;;;53.60;16.90;;;;;;;-1.20;59.99;101374.88;110842;1211;108361;-61
2023/04/06 02:53:45;;;;;;;41.50;17.00;;;;;;;-1.21;60.34;101374.85;110789;1209;140863;-61
2023/04/06 02:56:10;;;;;;;47.30;17.50;;;;;;;-1.22;60.02;101377.81;111048;1212;99134;-61
2023/04/06 02:58:36;;;;;;;44.80;17.30;;;;;;;-1.24;60.07;101382.70;110943;1206;101127;-60
2023/04/06 03:01:02;;;;;;;55.10;19.60;;;;;;;-1.26;60.42;101383.19;110797;1211;140599;-61
2023/04/06 03:03:27;;;;;;;44.70;17.40;;;;;;;-1.27;60.20;101383.68;110993;1206;98924;-61
2023/04/06 03:05:54;;;;;;;48.10;18.40;;;;;;;-1.29;60.53;101388.23;110854;1211;140038;-61
2023/04/06 03:08:19;;;;;;;49.60;17.80;;;;;;;-1.31;60.54;101388.36;110987;1212;101922;-62
2023/04/06 03:10:45;;;;;;;47.60;18.50;;;;;;;-1.31;60.72;101388.54;111015;1209;99005;-62
2023/04/06 03:13:10;;;;;;;52.70;18.90;;;;;;;-1.32;60.59;101390.45;110845;1206;139397;-62
2023/04/06 03:15:35;;;;;;;50.20;18.80;;;;;;;-1.34;60.57;101390.42;110879;1211;111861;-62
2023/04/06 03:18:01;;;;;;;53.00;19.40;;;;;;;-1.36;60.61;101390.73;110776;1206;140307;-63
2023/04/06 03:20:26;;;;;;;47.10;18.00;;;;;;;-1.38;60.75;101389.30;110844;1212;98948;-62
2023/04/06 03:22:51;;;;;;;44.80;17.30;;;;;;;-1.38;60.57;101391.23;110972;1210;99040;-62
2023/04/06 03:25:16;;;;;;;51.00;17.00;;;;;;;-1.38;60.68;101393.85;110899;1218;138951;-62
2023/04/06 03:27:42;;;;;;;47.10;17.60;;;;;;;-1.38;60.73;101397.90;111002;1212;98984;-62
2023/04/06 03:30:08;;;;;;;49.00;16.80;;;;;;;-1.37;60.69;101400.35;110915;1212;138789;-62
2023/04/06 03:32:33;;;;;;;42.10;16.50;;;;;;;-1.37;60.72;101400.35;110977;1212;98902;-62
2023/04/06 03:34:58;;;;;;;40.20;16.70;;;;;;;-1.36;60.87;101396.34;111052;1210;99028;-62
2023/04/06 03:37:24;;;;;;;42.20;16.10;;;;;;;-1.35;60.84;101397.41;110768;1206;138823;-62
2023/04/06 03:39:49;;;;;;;52.50;18.50;;;;;;;-1.35;61.00;101398.11;111029;1209;99036;-62
2023/04/06 03:42:15;;;;;;;45.00;17.20;;;;;;;-1.35;60.98;101401.98;110870;1210;138785;-62
2023/04/06 03:44:40;;;;;;;45.90;17.30;;;;;;;-1.34;61.13;101403.20;110952;1206;101191;-63
2023/04/06 03:47:05;;;;;;;43.90;16.30;;;;;;;-1.33;61.22;101403.93;110843;1212;139968;-62
2023/04/06 03:49:30;;;;;;;43.90;16.00;;;;;;;-1.34;61.02;101404.63;110860;1212;99091;-63
2023/04/06 03:51:56;;;;;;;45.80;17.00;;;;;;;-1.34;61.29;101406.03;110921;1206;98964;-63
2023/04/06 03:54:21;;;;;;;53.30;17.30;;;;;;;-1.34;61.08;101405.66;110862;1211;139909;-62
2023/04/06 03:56:47;;;;;;;46.40;16.70;;;;;;;-1.33;61.12;101407.80;110931;1206;99097;-62
2023/04/06 03:59:12;;;;;;;47.60;17.90;;;;;;;-1.33;61.44;101410.08;110880;1211;140645;-62
2023/04/06 04:01:39;;;;;;;38.70;16.30;;;;;;;-1.32;61.33;101413.06;110820;1212;100356;-63
2023/04/06 04:04:04;;;;;;;46.80;18.30;;;;;;;-1.32;61.63;101412.20;110916;1212;98992;-62
2023/04/06 04:06:30;;;;;;;38.70;17.50;;;;;;;-1.32;61.39;101412.36;110674;1207;141045;-63
2023/04/06 04:08:55;;;;;;;43.20;17.50;;;;;;;-1.33;61.57;101411.30;111010;1206;99050;-62
2023/04/06 04:11:21;;;;;;;43.50;17.50;;;;;;;-1.33;61.55;101410.95;110812;1211;140268;-62
2023/04/06 04:13:46;;;;;;;42.50;17.30;;;;;;;-1.33;61.68;101413.77;110961;1209;99465;-61
2023/04/06 04:16:11;;;;;;;40.70;16.70;;;;;;;-1.34;61.62;101411.64;110953;1206;98971;-61
2023/04/06 04:18:37;;;;;;;44.80;18.60;;;;;;;-1.34;61.75;101408.83;110830;1209;139422;-61
2023/04/06 04:21:02;;;;;;;43.70;18.70;;;;;;;-1.34;61.86;101408.30;110914;1210;99078;-60
2023/04/06 04:23:27;;;;;;;53.80;18.50;;;;;;;-1.34;61.80;101412.33;110906;1212;139692;-60
2023/04/06 04:25:52;;;;;;;39.10;16.60;;;;;;;-1.34;61.87;101411.81;110988;1210;99007;-61
2023/04/06 04:28:18;;;;;;;56.90;18.50;;;;;;;-1.33;61.96;101413.39;110926;1206;99945;-61
2023/04/06 04:30:43;;;;;;;42.70;17.40;;;;;;;-1.34;61.99;101413.91;110860;1206;139525;-60
2023/04/06 04:33:08;;;;;;;39.00;16.40;;;;;;;-1.33;62.17;101410.95;110877;1212;101255;-61
2023/04/06 04:35:33;;;;;;;49.40;18.70;;;;;;;-1.33;61.85;101413.92;110787;1206;141563;-60
2023/04/06 04:37:59;;;;;;;54.60;17.90;;;;;;;-1.33;62.09;101416.73;110912;1212;99738;-61
2023/04/06 04:40:24;;;;;;;42.90;18.40;;;;;;;-1.33;62.26;101417.27;111070;1211;99041;-61
2023/04/06 04:42:50;;;;;;;52.70;22.50;;;;;;;-1.32;62.06;101421.13;110832;1206;138967;-61
2023/04/06 04:45:16;;;;;;;56.60;21.00;;;;;;;-1.32;62.07;101419.02;110966;1211;100095;-61
2023/04/06 04:47:41;;;;;;;61.40;19.70;;;;;;;-1.30;62.17;101422.91;110844;1206;140929;-60
2023/04/06 04:50:07;;;;;;;49.10;20.60;;;;;;;-1.30;62.31;101422.56;110932;1210;99057;-60
2023/04/06 04:52:32;;;;;;;49.00;19.70;;;;;;;-1.30;62.14;101422.75;110954;1210;99020;-60
2023/04/06 04:54:57;;;;;;;50.00;19.60;;;;;;;-1.29;62.24;101424.86;110924;1209;139827;-60
2023/04/06 04:57:23;;;;;;;51.90;19.70;;;;;;;-1.28;62.33;101417.33;110886;1212;98928;-61
2023/04/06 04:59:50;;;;;;;50.10;19.20;;;;;;;-1.26;62.48;101422.63;110901;1206;139960;-60
2023/04/06 05:02:15;;;;;;;39.60;17.00;;;;;;;-1.25;62.41;101420.72;110878;1218;108135;-60
2023/04/06 05:04:40;;;;;;;53.60;18.30;;;;;;;-1.24;62.25;101424.06;110940;1207;98941;-60
2023/04/06 05:07:07;;;;;;;53.10;19.80;;;;;;;-1.23;62.59;101427.77;110765;1210;140635;-61
2023/04/06 05:09:33;;;;;;;47.20;19.00;;;;;;;-1.22;62.70;101423.76;111008;1209;99536;-60
2023/04/06 05:12:00;;;;;;;50.40;19.50;;;;;;;-1.20;62.35;101428.88;110800;1209;139040;-61
2023/04/06 05:14:26;;;;;;;44.00;18.90;;;;;;;-1.18;62.63;101425.77;110915;1210;99012;-61
2023/04/06 05:16:51;;;;;;;49.20;19.60;;;;;;;-1.16;62.87;101425.96;111124;1208;98950;-62
2023/04/06 05:19:17;;;;;;;49.80;19.10;;;;;;;-1.13;62.63;101427.41;110868;1206;140250;-62
2023/04/06 05:21:42;;;;;;;49.00;19.50;;;;;;;-1.12;62.67;101431.46;110818;1211;99047;-62
2023/04/06 05:24:08;;;;;;;46.10;17.90;;;;;;;-1.10;62.69;101436.23;110912;1211;138789;-61
2023/04/06 05:26:33;;;;;;;55.70;20.00;;;;;;;-1.08;62.79;101437.85;110909;1211;99008;-62
2023/04/06 05:28:59;;;;;;;50.50;19.70;;;;;;;-1.05;62.88;101438.60;111041;1206;99107;-62
2023/04/06 05:31:24;;;;;;;53.30;20.40;;;;;;;-1.01;62.97;101438.48;110736;1211;138862;-62
2023/04/06 05:33:50;;;;;;;53.00;20.90;;;;;;;-0.96;62.96;101444.00;110882;1209;99657;-62
2023/04/06 05:36:15;;;;;;;56.80;21.20;;;;;;;-0.91;63.05;101443.73;110873;1211;138939;-62
2023/04/06 05:38:40;;;;;;;49.40;21.50;;;;;;;-0.87;62.96;101442.22;110895;1219;98964;-63
2023/04/06 05:41:06;;;;;;;49.40;20.20;;;;;;;-0.84;63.08;101444.38;110774;1206;140213;-63
2023/04/06 05:43:31;;;;;;;67.00;23.00;;;;;;;-0.81;63.13;101442.31;110824;1211;99619;-64
2023/04/06 05:45:56;;;;;;;65.20;22.00;;;;;;;-0.79;63.22;101439.20;110820;1212;100016;-61
2023/04/06 05:48:21;;;;;;;53.50;19.90;;;;;;;-0.76;63.14;101437.31;110728;1206;139035;-62
2023/04/06 05:50:50;;;;;;;54.80;21.60;;;;;;;-0.73;63.18;101437.18;110763;1206;99039;-63
2023/04/06 05:53:15;;;;;;;68.10;22.70;;;;;;;-0.69;63.25;101437.23;113176;1206;140521;-62
2023/04/06 05:55:41;;;;;;;55.70;23.10;;;;;;;-0.65;63.31;101433.44;112421;1210;99013;-62
2023/04/06 05:58:06;;;;;;;61.70;22.80;;;;;;;-0.61;63.19;101433.84;110877;1210;99119;-63
2023/04/06 06:00:31;;;;;;;54.30;21.80;;;;;;;-0.59;63.16;101433.88;110748;1209;140846;-61
2023/04/06 06:02:56;;;;;;;56.10;20.90;;;;;;;-0.55;63.34;101432.35;110913;1211;98979;-62
2023/04/06 06:05:22;;;;;;;63.10;22.70;;;;;;;-0.51;63.37;101430.30;110688;1206;139759;-60
2023/04/06 06:07:47;;;;;;;52.40;22.70;;;;;;;-0.44;63.57;101429.70;110858;1206;98930;-60
2023/04/06 06:10:12;;;;;;;62.00;22.30;;;;;;;-0.38;63.65;101426.45;110787;1206;99039;-62
2023/04/06 06:12:37;;;;;;;63.00;20.70;;;;;;;-0.30;63.49;101428.84;110760;1211;139414;-60
2023/04/06 06:15:03;;;;;;;61.30;20.60;;;;;;;-0.23;63.69;101426.83;110876;1219;99102;-61
2023/04/06 06:17:29;;;;;;;60.60;21.90;;;;;;;-0.15;63.64;101432.03;110733;1206;139112;-61
2023/04/06 06:19:54;;;;;;;51.10;20.50;;;;;;;-0.08;63.69;101430.89;111007;1206;98913;-62
2023/04/06 06:22:20;;;;;;;55.00;19.60;;;;;;;0.00;63.54;101433.25;110804;1212;107944;-63
2023/04/06 06:24:45;;;;;;;42.00;17.30;;;;;;;0.07;63.57;101432.79;110775;1211;140164;-63
2023/04/06 06:27:10;;;;;;;48.70;20.60;;;;;;;0.13;63.55;101429.52;110865;1205;99086;-63
2023/04/06 06:29:36;;;;;;;42.50;18.10;;;;;;;0.19;63.52;101428.36;110801;1206;138187;-62
2023/04/06 06:32:01;;;;;;;43.50;18.20;;;;;;;0.27;63.65;101429.52;110961;1210;99126;-62
2023/04/06 06:34:26;;;;;;;47.40;16.90;;;;;;;0.37;63.58;101431.90;110959;1208;98967;-62
2023/04/06 06:36:51;;;;;;;43.30;17.20;;;;;;;0.44;63.54;101433.55;110934;1211;138546;-62
2023/04/06 06:39:17;;;;;;;45.60;18.20;;;;;;;0.50;63.47;101433.98;110910;1206;107813;-61
2023/04/06 06:41:42;;;;;;;48.40;18.50;;;;;;;0.58;63.54;101433.70;110809;1211;140429;-61
2023/04/06 06:44:07;;;;;;;44.40;17.00;;;;;;;0.64;63.57;101435.35;111179;1209;99060;-63
2023/04/06 06:46:32;;;;;;;48.20;17.60;;;;;;;0.73;63.49;101437.89;110862;1206;99024;-61
2023/04/06 06:48:58;;;;;;;38.60;16.60;;;;;;;0.82;63.53;101436.39;110881;1206;139569;-62
2023/04/06 06:51:23;;;;;;;57.60;16.80;;;;;;;0.91;63.52;101429.80;111011;1209;99036;-61
2023/04/06 06:53:49;;;;;;;42.50;16.00;;;;;;;0.98;63.42;101425.45;110910;1209;140148;-61
2023/04/06 06:56:14;;;;;;;40.90;15.30;;;;;;;1.06;63.47;101433.44;111070;1227;99032;-61
2023/04/06 06:58:39;;;;;;;37.90;15.30;;;;;;;1.13;63.40;101432.42;110983;1211;99044;-62
2023/04/06 07:01:05;;;;;;;29.00;13.60;;;;;;;1.21;63.44;101429.49;110958;1206;140348;-61
2023/04/06 07:03:30;;;;;;;30.80;12.70;;;;;;;1.29;63.35;101434.67;110801;1211;99047;-65
2023/04/06 07:05:55;;;;;;;33.60;12.60;;;;;;;1.40;63.32;101436.84;110761;1212;140072;-62
2023/04/06 07:08:23;;;;;;;29.30;11.20;;;;;;;1.47;63.18;101434.61;111044;1209;99060;-61
2023/04/06 07:10:52;;;;;;;35.50;11.80;;;;;;;1.54;63.21;101432.71;110776;1211;113159;-64
2023/04/06 07:13:21;;;;;;;29.00;12.90;;;;;;;1.60;63.19;101433.64;110893;1206;138150;-62
2023/04/06 07:15:47;;;;;;;33.40;12.10;;;;;;;1.69;62.98;101431.92;110924;1211;107771;-62
2023/04/06 07:18:13;;;;;;;26.70;12.80;;;;;;;1.76;62.98;101428.25;110820;1209;140391;-62
2023/04/06 07:20:38;;;;;;;31.90;11.00;;;;;;;1.84;62.89;101428.65;110932;1206;97868;-62
2023/04/06 07:23:03;;;;;;;23.10;10.70;;;;;;;1.91;62.81;101426.74;110820;1209;138887;-62
2023/04/06 07:25:29;;;;;;;23.80;9.50;;;;;;;1.99;62.99;101424.66;110824;1209;99080;-62
2023/04/06 07:27:55;;;;;;;22.70;9.70;;;;;;;2.10;62.91;101421.53;110729;1206;98973;-62
2023/04/06 07:30:21;;;;;;;30.50;10.40;;;;;;;2.19;62.59;101421.73;110786;1206;139505;-63
2023/04/06 07:32:47;;;;;;;22.70;10.00;;;;;;;2.26;62.67;101425.83;111010;1211;99057;-61
2023/04/06 07:35:13;;;;;;;24.00;9.20;;;;;;;2.34;62.41;101424.26;110944;1211;139689;-61
2023/04/06 07:37:38;;;;;;;22.30;9.90;;;;;;;2.39;62.27;101422.67;110971;1210;99318;-61
2023/04/06 07:40:04;;;;;;;22.60;9.70;;;;;;;2.44;62.33;101424.98;111040;1210;99055;-61
2023/04/06 07:42:29;;;;;;;25.30;8.70;;;;;;;2.51;62.30;101424.65;110905;1206;137775;-62
2023/04/06 07:44:54;;;;;;;20.40;8.70;;;;;;;2.58;62.10;101420.59;110780;1209;98990;-61
2023/04/06 07:47:20;;;;;;;17.70;8.70;;;;;;;2.66;62.10;101416.52;110767;1211;140071;-61
2023/04/06 07:49:46;;;;;;;20.00;9.00;;;;;;;2.74;61.96;101421.13;110914;1211;100085;-62
2023/04/06 07:52:11;;;;;;;16.80;8.00;;;;;;;2.80;62.03;101423.25;110749;1206;99612;-62
2023/04/06 07:54:36;;;;;;;19.90;8.80;;;;;;;2.86;61.86;101415.48;110720;1211;137919;-62
2023/04/06 07:57:02;;;;;;;23.70;8.60;;;;;;;2.88;61.52;101414.07;110837;1206;98920;-63
2023/04/06 07:59:27;;;;;;;22.70;9.40;;;;;;;2.96;61.68;101414.42;110624;1209;138150;-62
2023/04/06 08:01:52;;;;;;;15.00;7.30;;;;;;;3.04;61.62;101414.95;110872;1206;99507;-62
2023/04/06 08:04:17;;;;;;;19.40;8.40;;;;;;;3.07;61.25;101419.02;111025;1206;99144;-62
2023/04/06 08:06:42;;;;;;;16.50;7.50;;;;;;;3.11;61.24;101420.95;110554;1206;139259;-63
2023/04/06 08:09:08;;;;;;;25.60;8.00;;;;;;;3.17;61.08;101418.13;110868;1206;98983;-62
2023/04/06 08:11:33;;;;;;;19.50;8.20;;;;;;;3.24;61.11;101419.89;110847;1211;139252;-63
2023/04/06 08:13:58;;;;;;;25.80;9.10;;;;;;;3.31;60.76;101416.70;110928;1208;99033;-63
2023/04/06 08:16:24;;;;;;;22.40;9.00;;;;;;;3.38;60.89;101415.45;110991;1206;98702;-62
2023/04/06 08:18:49;;;;;;;18.30;8.50;;;;;;;3.44;60.84;101410.84;110861;1206;138212;-62
2023/04/06 08:21:15;;;;;;;21.80;10.00;;;;;;;3.49;60.64;101416.14;110938;1209;99580;-63
2023/04/06 08:23:40;;;;;;;15.30;7.70;;;;;;;3.52;60.32;101410.30;110799;1208;139800;-63
2023/04/06 08:26:06;;;;;;;16.70;6.80;;;;;;;3.49;60.06;101410.48;110859;1209;98967;-62
2023/04/06 08:28:32;;;;;;;16.70;6.90;;;;;;;3.49;59.80;101411.02;110948;1207;98969;-62
2023/04/06 08:30:57;;;;;;;20.90;7.60;;;;;;;3.54;60.09;101408.70;110792;1211;139073;-62
2023/04/06 08:33:22;;;;;;;15.40;7.30;;;;;;;3.64;60.03;101409.91;110832;1223;100023;-62
2023/04/06 08:35:48;;;;;;;15.40;7.10;;;;;;;3.71;59.90;101411.13;110796;1211;138120;-63
2023/04/06 08:38:13;;;;;;;15.20;6.80;;;;;;;3.75;59.65;101406.52;111002;1206;97848;-62
2023/04/06 08:40:39;;;;;;;20.80;8.10;;;;;;;3.81;59.52;101404.73;111009;1211;99094;-63
2023/04/06 08:43:11;;;;;;;12.50;7.00;;;;;;;3.85;59.51;101404.55;110773;1211;138430;-62
2023/04/06 08:45:38;;;;;;;16.70;7.00;;;;;;;3.85;59.34;101404.72;110852;1209;98951;-62
2023/04/06 08:48:06;;;;;;;18.20;8.00;;;;;;;3.90;59.31;101403.12;110816;1206;138593;-63
2023/04/06 08:50:33;;;;;;;17.70;7.40;;;;;;;4.01;58.76;101403.95;110838;1206;113065;-63
2023/04/06 08:52:59;;;;;;;16.80;6.90;;;;;;;4.03;58.83;101407.65;110906;1205;99025;-63
2023/04/06 08:55:24;;;;;;;18.50;8.10;;;;;;;4.01;58.50;101402.35;110841;1209;137605;-62
2023/04/06 08:57:53;;;;;;;20.80;8.40;;;;;;;4.04;58.27;101403.59;110901;1209;99000;-63
2023/04/06 09:00:19;;;;;;;17.50;7.80;;;;;;;4.07;58.20;101401.63;111042;1210;140018;-61
2023/04/06 09:02:46;;;;;;;17.80;7.30;;;;;;;4.12;58.03;101398.60;111011;1211;98961;-62
2023/04/06 09:05:12;;;;;;;19.00;7.90;;;;;;;4.13;57.64;101398.23;111180;1211;139505;-62
2023/04/06 09:07:38;;;;;;;28.50;8.00;;;;;;;4.14;57.97;101396.81;111132;1206;97836;-61
2023/04/06 09:10:07;;;;;;;18.50;7.20;;;;;;;4.19;57.37;101396.26;111034;1224;112965;-62
2023/04/06 09:12:33;;;;;;;11.30;6.70;;;;;;;4.26;57.41;101394.27;110893;1210;138664;-62
2023/04/06 09:15:00;;;;;;;16.30;7.30;;;;;;;4.27;57.24;101392.33;111067;1211;97783;-62
2023/04/06 09:17:28;;;;;;;16.90;7.90;;;;;;;4.38;57.54;101394.56;110796;1210;139012;-62
2023/04/06 09:19:54;;;;;;;14.10;6.90;;;;;;;4.52;56.95;101394.11;110904;1206;100263;-62
2023/04/06 09:22:20;;;;;;;17.90;7.00;;;;;;;4.55;56.91;101388.61;110924;1210;99178;-61
2023/04/06 09:24:50;;;;;;;15.00;7.20;;;;;;;4.63;56.96;101387.14;111219;1208;138544;-62
2023/04/06 09:27:15;;;;;;;17.60;7.30;;;;;;;4.71;56.48;101385.14;110826;1210;99134;-62
2023/04/06 09:29:42;;;;;;;14.40;6.70;;;;;;;4.70;56.38;101381.60;110813;1206;138649;-61
2023/04/06 09:32:12;;;;;;;24.30;7.50;;;;;;;4.72;56.20;101380.70;111139;1206;98894;-62
2023/04/06 09:34:39;;;;;;;15.00;5.90;;;;;;;4.82;56.51;101378.48;111024;1211;107810;-62
2023/04/06 09:37:18;;;;;;;12.40;5.50;;;;;;;4.98;56.24;101373.23;110803;1206;138536;-62
2023/04/06 09:39:44;;;;;;;16.90;5.80;;;;;;;5.10;56.10;101374.70;110922;1209;99278;-63
2023/04/06 09:42:10;;;;;;;21.20;5.80;;;;;;;5.15;55.50;101371.83;110871;1206;138733;-63
2023/04/06 09:44:35;;;;;;;12.20;5.40;;;;;;;5.10;55.17;101368.34;110900;1211;99066;-62
2023/04/06 09:47:06;;;;;;;10.90;6.10;;;;;;;5.13;54.94;101372.02;110891;1208;99046;-62
2023/04/06 09:49:33;;;;;;;10.60;5.50;;;;;;;5.25;55.20;101365.16;111181;1206;97824;-62
2023/04/06 09:52:02;;;;;;;12.70;5.10;;;;;;;5.37;55.04;101366.44;111008;1211;99408;-63
2023/04/06 09:54:31;;;;;;;18.90;6.30;;;;;;;5.47;54.79;101371.45;110793;1209;138076;-63
2023/04/06 09:57:08;;;;;;;14.30;5.80;;;;;;;5.44;54.12;101367.23;110977;1210;107414;-62
2023/04/06 09:59:50;;;;;;;9.70;5.80;;;;;;;5.37;54.08;101365.54;110744;1210;139834;-62
2023/04/06 10:02:24;;;;;;;12.30;5.50;;;;;;;5.41;53.61;101366.75;110945;1205;99432;-63
2023/04/06 10:04:56;;;;;;;13.90;5.70;;;;;;;5.43;53.61;101366.02;110954;1205;113108;-63
2023/04/06 10:07:22;;;;;;;15.20;5.90;;;;;;;5.54;53.54;101365.89;110673;1212;138309;-63
2023/04/06 10:09:48;;;;;;;12.90;5.00;;;;;;;5.66;53.51;101363.11;110932;1206;99060;-62
2023/04/06 10:12:15;;;;;;;16.00;7.70;;;;;;;5.73;53.67;101359.65;110912;1211;139052;-62
2023/04/06 10:14:41;;;;;;;9.00;4.80;;;;;;;5.77;53.27;101358.52;110947;1208;113276;-61
2023/04/06 10:17:06;;;;;;;11.90;5.30;;;;;;;5.69;51.29;101354.02;111018;1205;97836;-63
2023/04/06 10:19:52;;;;;;;11.10;5.90;;;;;;;5.59;51.90;101346.88;110941;1206;99004;-61
2023/04/06 10:22:44;;;;;;;11.50;5.00;;;;;;;5.69;52.16;101347.11;111000;1211;99092;-62
2023/04/06 10:25:09;;;;;;;13.40;5.90;;;;;;;5.75;52.02;101341.54;110963;1207;139054;-61
2023/04/06 10:27:35;;;;;;;9.90;5.60;;;;;;;5.83;52.04;101336.28;110876;1211;99006;-62
2023/04/06 10:30:05;;;;;;;14.10;5.90;;;;;;;5.94;51.93;101337.07;110711;1209;138443;-61
2023/04/06 10:32:36;;;;;;;11.90;5.30;;;;;;;5.94;51.57;101343.81;111119;1206;99025;-62
2023/04/06 10:35:12;;;;;;;16.20;6.10;;;;;;;5.89;50.59;101338.19;110959;1211;111821;-62
2023/04/06 10:38:07;;;;;;;12.20;4.90;;;;;;;5.79;50.52;101332.27;111023;1206;99459;-62
2023/04/06 10:40:37;;;;;;;18.30;5.50;;;;;;;5.92;50.85;101330.88;110827;1206;107549;-62
2023/04/06 10:43:11;;;;;;;12.30;4.20;;;;;;;6.09;51.03;101328.52;110808;1206;138044;-62
2023/04/06 10:45:37;;;;;;;10.50;4.00;;;;;;;6.28;51.06;101332.52;110956;1211;99005;-62
2023/04/06 10:48:16;;;;;;;14.10;4.80;;;;;;;6.42;50.70;101328.92;110903;1208;138336;-62
2023/04/06 10:50:44;;;;;;;10.50;4.30;;;;;;;6.50;49.89;101328.98;110908;1211;100281;-63
2023/04/06 10:53:10;;;;;;;11.70;4.10;;;;;;;6.40;48.02;101327.71;110678;1207;138372;-63
2023/04/06 10:55:39;;;;;;;7.30;4.10;;;;;;;6.36;47.83;101325.29;110956;1211;99024;-63
2023/04/06 10:58:08;;;;;;;13.50;4.50;;;;;;;6.33;47.73;101320.71;111096;1206;98454;-62
2023/04/06 11:00:34;;;;;;;8.60;4.10;;;;;;;6.40;48.19;101317.60;111031;1206;138549;-62